Time,TemperatureF,DewpointF,PressureIn,WindDirection,WindDirectionDegrees,WindSpeedMPH,WindSpeedGustMPH,Humidity,HourlyPrecipIn,Conditions,Clouds,dailyrainin,SolarRadiationWatts/m^2,SoftwareType,DateUTC
2013-03-26 00:22:00,10.0,9.0,-100.00,NW,322,9.0,11.0,95,0.00,,,0.00,0.000000,,2013-03-26 05:22:00,
2013-03-26 00:32:00,10.0,9.0,-100.00,NW,322,9.0,11.0,95,0.00,,,0.00,0.000000,,2013-03-26 05:32:00,
2013-03-26 00:42:00,10.0,9.0,-100.00,NW,322,9.0,11.0,95,0.00,,,0.00,0.000000,,2013-03-26 05:42:00,
2013-03-26 00:52:00,10.0,9.0,-100.00,NW,322,9.0,11.0,95,0.00,,,0.00,0.000000,,2013-03-26 05:52:00,
2013-03-26 01:22:00,11.0,10.0,-100.00,North,355,10.0,12.0,94,0.00,,,0.00,0.000000,,2013-03-26 06:22:00,
2013-03-26 01:32:00,11.0,10.0,-100.00,North,355,10.0,12.0,94,0.00,,,0.00,0.000000,,2013-03-26 06:32:00,
2013-03-26 01:42:00,11.0,10.0,-100.00,North,355,10.0,12.0,94,0.00,,,0.00,0.000000,,2013-03-26 06:42:00,
2013-03-26 01:52:00,11.0,10.0,-100.00,North,355,10.0,12.0,94,0.00,,,0.00,0.000000,,2013-03-26 06:52:00,
2013-03-26 02:22:00,10.0,8.0,-100.00,NNE,29,8.0,11.0,91,0.00,,,0.00,0.000000,,2013-03-26 07:22:00,
2013-03-26 02:33:00,10.0,8.0,-100.00,NNE,29,8.0,11.0,91,0.00,,,0.00,0.000000,,2013-03-26 07:33:00,
2013-03-26 02:42:00,10.0,8.0,-100.00,NNE,29,8.0,11.0,91,0.00,,,0.00,0.000000,,2013-03-26 07:42:00,
2013-03-26 02:52:00,10.0,8.0,-100.00,NNE,29,8.0,11.0,91,0.00,,,0.00,0.000000,,2013-03-26 07:52:00,
2013-03-26 03:22:00,10.0,8.0,-100.00,North,6,6.0,11.0,91,0.00,,,0.00,0.000000,,2013-03-26 08:22:00,
2013-03-26 03:32:00,10.0,8.0,-100.00,North,6,6.0,11.0,91,0.00,,,0.00,0.000000,,2013-03-26 08:32:00,
2013-03-26 03:42:00,10.0,8.0,-100.00,North,6,6.0,11.0,91,0.00,,,0.00,0.000000,,2013-03-26 08:42:00,
2013-03-26 03:52:00,10.0,8.0,-100.00,North,6,6.0,11.0,91,0.00,,,0.00,0.000000,,2013-03-26 08:52:00,
2013-03-26 04:22:00,10.0,8.0,-100.00,NNE,27,7.0,10.0,90,0.00,,,0.00,0.000000,,2013-03-26 09:22:00,
2013-03-26 04:33:00,10.0,8.0,-100.00,NNE,27,7.0,10.0,90,0.00,,,0.00,0.000000,,2013-03-26 09:33:00,
2013-03-26 04:43:00,10.0,8.0,-100.00,NNE,27,7.0,10.0,90,0.00,,,0.00,0.000000,,2013-03-26 09:43:00,
2013-03-26 04:52:00,10.0,8.0,-100.00,NNE,27,7.0,10.0,90,0.00,,,0.00,0.000000,,2013-03-26 09:52:00,
2013-03-26 05:22:00,10.0,7.0,-100.00,NNE,24,5.0,8.0,89,0.00,,,0.00,0.000000,,2013-03-26 10:22:00,
2013-03-26 05:32:00,10.0,7.0,-100.00,NNE,24,5.0,8.0,89,0.00,,,0.00,0.000000,,2013-03-26 10:32:00,
2013-03-26 05:42:00,10.0,7.0,-100.00,NNE,24,5.0,8.0,89,0.00,,,0.00,0.000000,,2013-03-26 10:42:00,
2013-03-26 05:52:00,10.0,7.0,-100.00,NNE,24,5.0,8.0,89,0.00,,,0.00,0.000000,,2013-03-26 10:52:00,
2013-03-26 06:22:00,8.0,5.0,-100.00,North,6,5.0,7.0,89,0.00,,,0.00,0.000000,,2013-03-26 11:22:00,
2013-03-26 06:32:00,8.0,5.0,-100.00,North,6,5.0,7.0,89,0.00,,,0.00,0.000000,,2013-03-26 11:32:00,
2013-03-26 06:42:00,8.0,5.0,-100.00,North,6,5.0,7.0,89,0.00,,,0.00,0.000000,,2013-03-26 11:42:00,
2013-03-26 06:52:00,8.0,5.0,-100.00,North,6,5.0,7.0,89,0.00,,,0.00,0.000000,,2013-03-26 11:52:00,
2013-03-26 07:22:00,10.0,7.0,-100.00,NNE,30,5.0,5.0,88,0.00,,,0.00,0.000000,,2013-03-26 12:22:00,
2013-03-26 07:32:00,10.0,7.0,-100.00,NNE,30,5.0,5.0,88,0.00,,,0.00,0.000000,,2013-03-26 12:32:00,
2013-03-26 07:42:00,10.0,7.0,-100.00,NNE,30,5.0,5.0,88,0.00,,,0.00,0.000000,,2013-03-26 12:42:00,
2013-03-26 07:52:00,10.0,7.0,-100.00,NNE,30,5.0,5.0,88,0.00,,,0.00,0.000000,,2013-03-26 12:52:00,
2013-03-26 08:22:00,12.0,9.0,-100.00,SSE,163,1.0,5.0,89,0.00,,,0.00,15.000000,,2013-03-26 13:22:00,
2013-03-26 08:32:00,12.0,9.0,-100.00,SSE,163,1.0,5.0,89,0.00,,,0.00,15.000000,,2013-03-26 13:32:00,
2013-03-26 08:42:00,12.0,9.0,-100.00,SSE,163,1.0,5.0,89,0.00,,,0.00,15.000000,,2013-03-26 13:42:00,
2013-03-26 08:52:00,12.0,9.0,-100.00,SSE,163,1.0,5.0,89,0.00,,,0.00,15.000000,,2013-03-26 13:52:00,
2013-03-26 09:22:00,15.0,10.0,-100.00,South,178,3.0,4.0,80,0.00,,,0.00,88.000000,,2013-03-26 14:22:00,
2013-03-26 09:32:00,15.0,10.0,-100.00,South,178,3.0,4.0,80,0.00,,,0.00,88.000000,,2013-03-26 14:32:00,
2013-03-26 09:42:00,15.0,10.0,-100.00,South,178,3.0,4.0,80,0.00,,,0.00,88.000000,,2013-03-26 14:42:00,
2013-03-26 09:52:00,15.0,10.0,-100.00,South,178,3.0,4.0,80,0.00,,,0.00,88.000000,,2013-03-26 14:52:00,
2013-03-26 10:22:00,17.0,10.0,-100.00,SW,225,5.0,5.0,74,0.00,,,0.00,51.000000,,2013-03-26 15:22:00,
2013-03-26 10:33:00,17.0,10.0,-100.00,SW,225,5.0,5.0,74,0.00,,,0.00,51.000000,,2013-03-26 15:33:00,
2013-03-26 10:43:00,17.0,10.0,-100.00,SW,225,5.0,5.0,74,0.00,,,0.00,51.000000,,2013-03-26 15:43:00,
2013-03-26 10:52:00,17.0,10.0,-100.00,SW,225,5.0,5.0,74,0.00,,,0.00,51.000000,,2013-03-26 15:52:00,
2013-03-26 11:22:00,19.0,12.0,-100.00,SW,215,5.0,6.0,73,0.00,,,0.00,394.000000,,2013-03-26 16:22:00,
2013-03-26 11:32:00,19.0,12.0,-100.00,SW,215,5.0,6.0,73,0.00,,,0.00,394.000000,,2013-03-26 16:32:00,
2013-03-26 11:42:00,19.0,12.0,-100.00,SW,215,5.0,6.0,73,0.00,,,0.00,394.000000,,2013-03-26 16:42:00,
2013-03-26 11:53:00,19.0,12.0,-100.00,SW,215,5.0,6.0,73,0.00,,,0.00,394.000000,,2013-03-26 16:53:00,
2013-03-26 12:32:00,23.0,13.0,-100.00,SSW,205,4.0,5.0,66,0.00,,,0.00,717.000000,,2013-03-26 17:32:00,
2013-03-26 12:42:00,23.0,13.0,-100.00,SSW,205,4.0,5.0,66,0.00,,,0.00,717.000000,,2013-03-26 17:42:00,
2013-03-26 12:52:00,23.0,13.0,-100.00,SSW,205,4.0,5.0,66,0.00,,,0.00,717.000000,,2013-03-26 17:52:00,
2013-03-26 13:23:00,24.0,13.0,-100.00,SW,217,4.0,5.0,63,0.00,,,0.00,884.000000,,2013-03-26 18:23:00,
2013-03-26 13:34:00,24.0,13.0,-100.00,SW,217,4.0,5.0,63,0.00,,,0.00,884.000000,,2013-03-26 18:34:00,
2013-03-26 13:42:00,24.0,13.0,-100.00,SW,217,4.0,5.0,63,0.00,,,0.00,884.000000,,2013-03-26 18:42:00,
2013-03-26 13:52:00,24.0,13.0,-100.00,SW,217,4.0,5.0,63,0.00,,,0.00,884.000000,,2013-03-26 18:52:00,
2013-03-26 14:22:00,26.0,14.0,-100.00,SSW,195,3.0,6.0,61,0.00,,,0.00,921.000000,,2013-03-26 19:22:00,
2013-03-26 14:32:00,26.0,14.0,-100.00,SSW,195,3.0,6.0,61,0.00,,,0.00,921.000000,,2013-03-26 19:32:00,
2013-03-26 14:42:00,26.0,14.0,-100.00,SSW,195,3.0,6.0,61,0.00,,,0.00,921.000000,,2013-03-26 19:42:00,
2013-03-26 14:53:00,26.0,14.0,-100.00,SSW,195,3.0,6.0,61,0.00,,,0.00,921.000000,,2013-03-26 19:53:00,
2013-03-26 15:22:00,24.0,13.0,-100.00,ESE,102,9.0,11.0,61,0.00,,,0.00,844.000000,,2013-03-26 20:22:00,
2013-03-26 15:32:00,24.0,13.0,-100.00,ESE,102,9.0,11.0,61,0.00,,,0.00,844.000000,,2013-03-26 20:32:00,
2013-03-26 15:42:00,24.0,13.0,-100.00,ESE,102,9.0,11.0,61,0.00,,,0.00,844.000000,,2013-03-26 20:42:00,
2013-03-26 15:52:00,24.0,13.0,-100.00,ESE,102,9.0,11.0,61,0.00,,,0.00,844.000000,,2013-03-26 20:52:00,
2013-03-26 16:22:00,23.0,14.0,-100.00,East,97,10.0,12.0,69,0.00,,,0.00,792.000000,,2013-03-26 21:22:00,
2013-03-26 16:33:00,23.0,14.0,-100.00,East,97,10.0,12.0,69,0.00,,,0.00,792.000000,,2013-03-26 21:33:00,
2013-03-26 16:42:00,23.0,14.0,-100.00,East,97,10.0,12.0,69,0.00,,,0.00,792.000000,,2013-03-26 21:42:00,
2013-03-26 16:52:00,23.0,14.0,-100.00,East,97,10.0,12.0,69,0.00,,,0.00,792.000000,,2013-03-26 21:52:00,
2013-03-26 17:22:00,22.0,15.0,-100.00,East,101,10.0,13.0,73,0.00,,,0.00,627.000000,,2013-03-26 22:22:00,
2013-03-26 17:33:00,22.0,15.0,-100.00,East,101,10.0,13.0,73,0.00,,,0.00,627.000000,,2013-03-26 22:33:00,
2013-03-26 17:42:00,22.0,15.0,-100.00,East,101,10.0,13.0,73,0.00,,,0.00,627.000000,,2013-03-26 22:42:00,
2013-03-26 17:52:00,22.0,15.0,-100.00,East,101,10.0,13.0,73,0.00,,,0.00,627.000000,,2013-03-26 22:52:00,
2013-03-26 18:22:00,21.0,14.0,-100.00,East,101,11.0,14.0,75,0.00,,,0.00,440.000000,,2013-03-26 23:22:00,
2013-03-26 18:32:00,21.0,14.0,-100.00,East,101,11.0,14.0,75,0.00,,,0.00,440.000000,,2013-03-26 23:32:00,
2013-03-26 18:42:00,21.0,14.0,-100.00,East,101,11.0,14.0,75,0.00,,,0.00,440.000000,,2013-03-26 23:42:00,
2013-03-26 18:52:00,21.0,14.0,-100.00,East,101,11.0,14.0,75,0.00,,,0.00,440.000000,,2013-03-26 23:52:00,
2013-03-26 19:22:00,19.0,13.0,-100.00,ESE,102,11.0,14.0,78,0.00,,,0.00,239.000000,,2013-03-27 00:22:00,
2013-03-26 19:32:00,19.0,13.0,-100.00,ESE,102,11.0,14.0,78,0.00,,,0.00,239.000000,,2013-03-27 00:32:00,
2013-03-26 19:42:00,19.0,13.0,-100.00,ESE,102,11.0,14.0,78,0.00,,,0.00,239.000000,,2013-03-27 00:42:00,
2013-03-26 19:52:00,19.0,13.0,-100.00,ESE,102,11.0,14.0,78,0.00,,,0.00,239.000000,,2013-03-27 00:52:00,
2013-03-26 20:23:00,15.0,12.0,-100.00,ESE,105,8.0,11.0,89,0.00,,,0.00,34.000000,,2013-03-27 01:23:00,
2013-03-26 20:33:00,15.0,12.0,-100.00,ESE,105,8.0,11.0,89,0.00,,,0.00,34.000000,,2013-03-27 01:33:00,
2013-03-26 20:42:00,15.0,12.0,-100.00,ESE,105,8.0,11.0,89,0.00,,,0.00,34.000000,,2013-03-27 01:42:00,
2013-03-26 20:52:00,15.0,12.0,-100.00,ESE,105,8.0,11.0,89,0.00,,,0.00,34.000000,,2013-03-27 01:52:00,
2013-03-26 21:22:00,14.0,12.0,-100.00,ESE,117,8.0,10.0,92,0.00,,,0.00,0.000000,,2013-03-27 02:22:00,
2013-03-26 21:32:00,14.0,12.0,-100.00,ESE,117,8.0,10.0,92,0.00,,,0.00,0.000000,,2013-03-27 02:32:00,
2013-03-26 21:42:00,14.0,12.0,-100.00,ESE,117,8.0,10.0,92,0.00,,,0.00,0.000000,,2013-03-27 02:42:00,
2013-03-26 21:52:00,14.0,12.0,-100.00,ESE,117,8.0,10.0,92,0.00,,,0.00,0.000000,,2013-03-27 02:52:00,
2013-03-26 22:22:00,13.0,12.0,-100.00,SE,129,7.0,10.0,96,0.00,,,0.00,0.000000,,2013-03-27 03:22:00,
2013-03-26 22:33:00,13.0,12.0,-100.00,SE,129,7.0,10.0,96,0.00,,,0.00,0.000000,,2013-03-27 03:33:00,
2013-03-26 22:42:00,13.0,12.0,-100.00,SE,129,7.0,10.0,96,0.00,,,0.00,0.000000,,2013-03-27 03:42:00,
2013-03-26 22:52:00,13.0,12.0,-100.00,SE,129,7.0,10.0,96,0.00,,,0.00,0.000000,,2013-03-27 03:52:00,
2013-03-26 23:23:00,14.0,13.0,-100.00,ESE,119,7.0,10.0,96,0.00,,,0.00,0.000000,,2013-03-27 04:23:00,
2013-03-26 23:33:00,14.0,13.0,-100.00,ESE,119,7.0,10.0,96,0.00,,,0.00,0.000000,,2013-03-27 04:33:00,
2013-03-26 23:42:00,14.0,13.0,-100.00,ESE,119,7.0,10.0,96,0.00,,,0.00,0.000000,,2013-03-27 04:42:00,
2013-03-26 23:52:00,14.0,13.0,-100.00,ESE,119,7.0,10.0,96,0.00,,,0.00,0.000000,,2013-03-27 04:52:00,